Time;durP1;ratioP1;P1;durP2;ratioP2;P2;SDS_P1;SDS_P2;PMS_P1;PMS_P2;Temp;Humidity;BMP_temperature;BMP_pressure;BME280_temperature;BME280_humidity;BME280_pressure;Samples;Min_cycle;Max_cycle;Signal;HPM_P1;HPM_P2
2023/06/06 00:02:07;;;;;;;7.90;6.07;;;;;;;-141.84;58.11;20974.50;5086958;28;20212;-56
2023/06/06 00:04:36;;;;;;;6.43;5.13;;;;;;;-141.84;57.95;20972.47;5077369;28;20211;-57
2023/06/06 00:07:08;;;;;;;7.40;4.65;;;;;;;-141.84;58.25;20952.13;5088592;28;20206;-55
2023/06/06 00:09:37;;;;;;;8.30;5.25;;;;;;;-141.84;57.98;20966.34;5092601;28;20196;-58
2023/06/06 00:12:12;;;;;;;5.00;4.40;;;;;;;-141.84;57.98;20960.25;5092455;28;20207;-59
2023/06/06 00:14:42;;;;;;;5.38;4.55;;;;;;;-141.84;58.28;20931.78;5092209;28;20525;-56
2023/06/06 00:17:12;;;;;;;6.00;4.68;;;;;;;-141.84;58.61;20946.03;5092279;28;20307;-57
2023/06/06 00:19:42;;;;;;;5.18;4.75;;;;;;;-141.84;58.61;20933.81;5092534;28;20300;-57
2023/06/06 00:22:11;;;;;;;5.60;4.68;;;;;;;-141.84;58.68;20970.41;5091583;28;20231;-58
2023/06/06 00:24:39;;;;;;;4.82;4.43;;;;;;;-141.84;58.26;20946.03;5090499;28;20570;-58
2023/06/06 00:27:08;;;;;;;5.20;4.72;;;;;;;-141.84;57.39;21000.91;5092265;28;20250;-57
2023/06/06 00:29:36;;;;;;;5.45;4.75;;;;;;;-141.84;57.81;20986.69;5092224;28;20215;-57
2023/06/06 00:32:05;;;;;;;5.28;4.75;;;;;;;-141.84;58.11;20921.63;5091534;28;20767;-56
2023/06/06 00:34:35;;;;;;;4.57;4.18;;;;;;;-141.84;58.21;20988.72;5091975;28;20707;-58
2023/06/06 00:37:04;;;;;;;5.22;4.72;;;;;;;-141.84;57.76;20998.88;5092046;28;20469;-57
2023/06/06 00:39:33;;;;;;;5.55;4.75;;;;;;;-141.84;57.62;21004.97;5092183;28;20622;-57
2023/06/06 00:42:01;;;;;;;4.70;4.18;;;;;;;-141.84;57.58;20976.53;5092189;28;20204;-57
2023/06/06 00:44:30;;;;;;;5.15;4.65;;;;;;;-141.84;57.79;20986.69;5091825;28;20722;-57
2023/06/06 00:46:58;;;;;;;5.53;5.03;;;;;;;-141.84;57.86;21039.53;5091696;28;20200;-57
2023/06/06 00:49:27;;;;;;;5.07;4.38;;;;;;;-141.84;57.56;20992.78;5091415;28;20223;-57
2023/06/06 00:51:59;;;;;;;5.38;4.88;;;;;;;-141.84;57.27;21031.41;5091660;28;20195;-59
2023/06/06 00:54:27;;;;;;;5.53;4.65;;;;;;;-141.84;57.81;21009.03;5072575;28;20204;-58
2023/06/06 00:56:57;;;;;;;4.97;4.32;;;;;;;-141.84;57.74;21029.38;5091390;28;20200;-57
2023/06/06 00:59:26;;;;;;;4.65;4.25;;;;;;;-141.84;57.64;20990.75;5091576;28;20292;-56
2023/06/06 01:01:54;;;;;;;5.32;4.82;;;;;;;-141.84;57.71;20996.84;5091125;28;20245;-58
2023/06/06 01:04:24;;;;;;;4.82;4.35;;;;;;;-141.84;57.51;20996.84;5091749;28;20196;-57
2023/06/06 01:06:53;;;;;;;5.85;4.43;;;;;;;-141.84;57.78;20980.59;5091298;28;20211;-59
2023/06/06 01:09:23;;;;;;;5.57;4.70;;;;;;;-141.84;57.76;21007.00;5091783;28;20303;-58
2023/06/06 01:11:59;;;;;;;4.65;4.25;;;;;;;-141.84;57.88;20980.59;5091330;28;20295;-58
2023/06/06 01:14:36;;;;;;;5.63;4.90;;;;;;;-141.84;58.10;21000.91;5091570;28;20185;-58
2023/06/06 01:17:07;;;;;;;5.32;4.82;;;;;;;-141.84;58.00;20964.31;5091146;28;20219;-57
2023/06/06 01:19:38;;;;;;;5.63;5.13;;;;;;;-141.84;58.15;20982.63;5086253;28;20319;-58
2023/06/06 01:22:13;;;;;;;5.28;4.82;;;;;;;-141.84;57.80;21004.97;5091593;28;20188;-57
2023/06/06 01:24:45;;;;;;;5.18;4.72;;;;;;;-141.84;57.87;20996.84;5091329;28;20559;-57
2023/06/06 01:27:14;;;;;;;5.15;4.68;;;;;;;-141.84;57.24;21019.22;5090874;28;20210;-57
2023/06/06 01:29:42;;;;;;;5.78;4.78;;;;;;;-141.84;57.34;21033.44;5090952;28;20218;-57
2023/06/06 01:32:21;;;;;;;5.72;5.22;;;;;;;-141.84;57.25;21007.00;5091081;28;20210;-57
2023/06/06 01:34:54;;;;;;;5.28;4.78;;;;;;;-141.84;57.31;21004.97;5091264;28;20189;-56
2023/06/06 01:37:36;;;;;;;5.53;4.90;;;;;;;-141.84;57.06;21011.09;5071890;28;20315;-57
2023/06/06 01:40:09;;;;;;;6.63;4.95;;;;;;;-141.84;56.25;21033.44;5070793;28;20236;-56
2023/06/06 01:42:44;;;;;;;5.68;4.60;;;;;;;-141.84;56.37;21059.88;5070757;28;20181;-58
2023/06/06 01:45:15;;;;;;;5.20;4.70;;;;;;;-141.84;56.55;21039.53;5070807;28;20409;-57
2023/06/06 01:47:45;;;;;;;5.28;4.78;;;;;;;-141.84;56.21;21037.50;5070722;28;20238;-55
2023/06/06 01:50:14;;;;;;;6.00;4.72;;;;;;;-141.84;56.55;21013.13;5070721;28;20232;-57
2023/06/06 01:52:45;;;;;;;5.35;4.90;;;;;;;-141.84;56.66;21045.63;5070867;28;20295;-57
2023/06/06 01:55:14;;;;;;;5.78;4.75;;;;;;;-141.84;57.09;20988.72;5071041;28;20583;-57
2023/06/06 01:57:43;;;;;;;5.03;4.60;;;;;;;-141.84;57.00;21017.19;5070827;28;20727;-58
2023/06/06 02:00:12;;;;;;;5.90;4.80;;;;;;;-141.84;56.94;21033.44;5071018;28;20264;-58
2023/06/06 02:02:41;;;;;;;5.93;4.82;;;;;;;-141.84;57.35;20994.81;5077363;28;20216;-57
2023/06/06 02:05:11;;;;;;;5.30;4.90;;;;;;;-141.84;57.57;20980.59;5071573;28;20246;-57
2023/06/06 02:07:41;;;;;;;6.32;4.75;;;;;;;-141.84;57.93;21004.97;5090213;28;20206;-56
2023/06/06 02:10:11;;;;;;;5.07;4.63;;;;;;;-141.84;58.14;20984.66;5090937;28;20185;-55
2023/06/06 02:12:40;;;;;;;4.60;4.20;;;;;;;-141.84;58.32;20990.75;5090593;28;20484;-58
2023/06/06 02:15:10;;;;;;;5.43;4.53;;;;;;;-141.84;58.62;20964.31;5085849;28;20866;-57
2023/06/06 02:17:39;;;;;;;7.03;4.30;;;;;;;-141.84;59.00;20968.38;5070242;28;20250;-57
2023/06/06 02:20:09;;;;;;;5.25;4.75;;;;;;;-141.84;58.99;21000.91;5080361;28;20200;-57
2023/06/06 02:22:38;;;;;;;5.18;4.68;;;;;;;-141.84;58.79;21004.97;5088145;28;20235;-58
2023/06/06 02:25:08;;;;;;;4.80;4.30;;;;;;;-141.84;59.29;20972.47;5090303;28;20231;-57
2023/06/06 02:27:38;;;;;;;5.50;4.68;;;;;;;-141.84;59.85;20960.25;5090464;28;20297;-57
2023/06/06 02:30:08;;;;;;;6.20;4.90;;;;;;;-141.84;60.89;20956.19;5090200;28;20185;-57
2023/06/06 02:32:37;;;;;;;6.55;4.60;;;;;;;-141.84;62.06;20927.72;5091491;28;20219;-59
2023/06/06 02:35:06;;;;;;;5.57;4.80;;;;;;;-141.84;63.24;20923.66;5093803;28;20226;-56
2023/06/06 02:37:34;;;;;;;5.13;4.65;;;;;;;-141.84;64.10;20901.31;5073881;28;20205;-58
2023/06/06 02:40:08;;;;;;;5.32;4.78;;;;;;;-141.84;64.75;20860.66;5073367;28;20720;-57
2023/06/06 02:42:39;;;;;;;6.05;4.38;;;;;;;-141.84;64.76;20862.69;5073633;28;20193;-57
2023/06/06 02:45:09;;;;;;;5.05;4.40;;;;;;;-141.84;65.27;20852.50;5073420;28;20661;-56
2023/06/06 02:47:38;;;;;;;5.13;4.60;;;;;;;-141.84;64.97;20860.66;5074040;28;20205;-55
2023/06/06 02:50:08;;;;;;;5.03;4.53;;;;;;;-141.84;64.76;20860.66;5073554;28;20362;-58
2023/06/06 02:52:38;;;;;;;5.43;4.70;;;;;;;-141.84;64.86;20876.91;5073410;28;20239;-59
2023/06/06 02:55:07;;;;;;;5.13;4.72;;;;;;;-141.84;64.63;20878.94;5073600;28;20234;-56
2023/06/06 02:57:36;;;;;;;5.47;4.97;;;;;;;-141.84;64.44;20885.03;5073287;28;20657;-56
2023/06/06 03:00:08;;;;;;;5.32;4.63;;;;;;;-141.84;63.69;20931.78;5073166;28;20255;-56
2023/06/06 03:02:37;;;;;;;4.93;4.47;;;;;;;-141.84;64.89;20874.88;5079947;28;20197;-56
2023/06/06 03:05:07;;;;;;;6.00;5.05;;;;;;;-141.84;65.47;20866.75;5087946;28;20333;-58
2023/06/06 03:07:38;;;;;;;5.75;5.20;;;;;;;-141.84;66.30;20805.75;5093197;28;20279;-55
2023/06/06 03:10:07;;;;;;;5.50;4.90;;;;;;;-141.84;66.55;20826.09;5093420;28;20293;-57
2023/06/06 03:12:36;;;;;;;5.03;4.63;;;;;;;-141.84;66.28;20874.88;5078976;28;20204;-56
2023/06/06 03:15:06;;;;;;;5.07;4.53;;;;;;;-141.84;66.75;20850.47;5072602;28;20295;-56
2023/06/06 03:17:36;;;;;;;4.88;4.47;;;;;;;-141.84;66.64;20828.13;5073045;28;20258;-56
2023/06/06 03:20:06;;;;;;;5.32;4.47;;;;;;;-141.84;66.67;20817.94;5086728;28;20315;-58
2023/06/06 03:22:35;;;;;;;5.05;4.57;;;;;;;-141.84;66.56;20797.63;5093461;28;20533;-57
2023/06/06 03:25:04;;;;;;;6.13;5.53;;;;;;;-141.84;66.76;20811.84;5093341;28;20243;-58
2023/06/06 03:27:32;;;;;;;5.88;5.25;;;;;;;-141.84;67.08;20801.69;5093412;28;20207;-57
2023/06/06 03:30:06;;;;;;;6.03;5.43;;;;;;;-141.84;67.54;20842.34;5093220;28;20627;-57
2023/06/06 03:32:36;;;;;;;5.80;5.20;;;;;;;-141.84;67.92;20836.25;5093264;28;20257;-57
2023/06/06 03:35:05;;;;;;;5.85;5.25;;;;;;;-141.84;68.80;20795.59;5093507;28;20615;-56
2023/06/06 03:37:34;;;;;;;5.85;5.25;;;;;;;-141.84;69.57;20791.53;5073146;28;20292;-57
2023/06/06 03:40:03;;;;;;;5.72;5.22;;;;;;;-141.84;70.80;20787.47;5072963;28;20311;-57
2023/06/06 03:42:31;;;;;;;6.63;5.63;;;;;;;-141.84;72.11;20773.22;5072848;28;20228;-57
2023/06/06 03:45:00;;;;;;;6.30;5.30;;;;;;;-141.84;73.25;20732.56;5072403;28;20208;-56
2023/06/06 03:47:28;;;;;;;6.60;5.50;;;;;;;-141.84;73.36;20730.53;5072814;28;20255;-55
2023/06/06 03:49:58;;;;;;;8.52;5.95;;;;;;;-141.84;74.54;20685.81;5072057;28;20274;-57
2023/06/06 03:52:27;;;;;;;7.65;5.75;;;;;;;-141.84;74.99;20722.41;5072367;28;20568;-59
2023/06/06 03:54:55;;;;;;;5.88;5.38;;;;;;;-141.84;76.44;20750.88;5072793;28;20212;-57
2023/06/06 03:57:24;;;;;;;6.80;6.20;;;;;;;-141.84;77.60;20720.38;5072527;28;20291;-57
2023/06/06 03:59:53;;;;;;;7.50;6.40;;;;;;;-141.84;78.92;20700.03;5075105;28;20225;-56
2023/06/06 04:02:21;;;;;;;7.18;6.47;;;;;;;-141.84;79.94;20655.31;5085719;28;20574;-58
2023/06/06 04:04:51;;;;;;;8.07;6.80;;;;;;;-141.84;80.36;20628.91;5072284;28;20244;-55
2023/06/06 04:07:24;;;;;;;7.43;6.72;;;;;;;-141.84;81.00;20639.06;5076431;28;20193;-57
2023/06/06 04:09:52;;;;;;;7.63;6.82;;;;;;;-141.84;81.47;20675.66;5092715;28;20234;-58
2023/06/06 04:12:21;;;;;;;13.38;7.15;;;;;;;-141.84;82.00;20608.56;5092729;28;20678;-57
2023/06/06 04:14:49;;;;;;;7.35;6.65;;;;;;;-141.84;81.30;20675.66;5092025;28;20782;-57
2023/06/06 04:17:19;;;;;;;7.28;6.32;;;;;;;-141.84;81.15;20655.31;5092333;28;20216;-57
2023/06/06 04:19:48;;;;;;;7.75;6.95;;;;;;;-141.84;81.22;20667.53;5092040;28;20306;-57
2023/06/06 04:22:18;;;;;;;7.33;6.63;;;;;;;-141.84;81.13;20661.44;5092075;28;20743;-56
2023/06/06 04:24:48;;;;;;;6.93;6.33;;;;;;;-141.84;81.50;20653.28;5091877;28;20206;-58
2023/06/06 04:27:18;;;;;;;7.70;6.90;;;;;;;-141.84;82.31;20643.13;5092006;28;20770;-58
2023/06/06 04:29:50;;;;;;;7.50;6.80;;;;;;;-141.84;82.54;20655.31;5091677;28;20299;-58
2023/06/06 04:32:19;;;;;;;8.40;7.57;;;;;;;-141.84;82.96;20600.44;5092193;28;20200;-57
2023/06/06 04:34:51;;;;;;;8.00;7.20;;;;;;;-141.84;83.13;20667.53;5092179;28;20412;-56
2023/06/06 04:37:20;;;;;;;7.75;7.03;;;;;;;-141.84;82.49;20643.13;5072874;28;20598;-58
2023/06/06 04:39:52;;;;;;;8.47;6.90;;;;;;;-141.84;82.76;20647.19;5071763;28;20250;-57
2023/06/06 04:42:23;;;;;;;7.57;6.78;;;;;;;-141.84;83.37;20606.53;5071887;28;20213;-55
2023/06/06 04:44:52;;;;;;;8.10;7.30;;;;;;;-141.84;83.71;20608.56;5071509;28;20634;-57
2023/06/06 04:47:20;;;;;;;8.27;7.50;;;;;;;-141.84;82.79;20647.19;5071309;28;20651;-57
2023/06/06 04:49:51;;;;;;;8.13;7.33;;;;;;;-141.84;83.08;20635.00;5071715;28;20228;-57
2023/06/06 04:52:19;;;;;;;7.95;7.15;;;;;;;-141.84;83.23;20618.72;5071981;28;20252;-69
2023/06/06 04:54:49;;;;;;;7.80;7.10;;;;;;;-141.84;83.95;20604.50;5071013;28;20283;-69
2023/06/06 04:57:19;;;;;;;7.97;7.18;;;;;;;-141.84;84.57;20586.22;5083615;28;20625;-69
2023/06/06 04:59:51;;;;;;;7.82;7.10;;;;;;;-141.84;85.17;20578.09;5056487;28;20246;-71
2023/06/06 05:02:21;;;;;;;8.95;7.30;;;;;;;-141.84;84.70;20574.00;5090986;28;20200;-70
2023/06/06 05:04:52;;;;;;;8.43;7.63;;;;;;;-141.84;83.65;20628.91;5079120;28;20215;-70
2023/06/06 05:07:23;;;;;;;8.00;7.20;;;;;;;-141.84;82.83;20628.91;5090092;28;20194;-69
2023/06/06 05:09:53;;;;;;;7.90;7.03;;;;;;;-141.84;83.43;20576.03;5091102;28;20180;-69
2023/06/06 05:12:22;;;;;;;7.85;7.10;;;;;;;-141.84;84.16;20569.94;5071956;28;20257;-70
2023/06/06 05:14:50;;;;;;;7.60;7.00;;;;;;;-141.84;84.88;20539.47;5091019;28;20204;-71
2023/06/06 05:17:20;;;;;;;8.13;7.33;;;;;;;-141.84;84.38;20525.22;5091417;28;20195;-71
2023/06/06 05:19:49;;;;;;;9.13;7.17;;;;;;;-141.84;85.04;20574.00;5090946;28;20307;-70
2023/06/06 05:22:18;;;;;;;8.88;7.32;;;;;;;-141.84;84.15;20590.28;5055575;28;20864;-69
2023/06/06 05:24:46;;;;;;;8.00;7.07;;;;;;;-141.84;84.67;20569.94;5091340;28;20199;-69
2023/06/06 05:27:16;;;;;;;8.17;7.37;;;;;;;-141.84;85.55;20527.25;5090964;28;20728;-70
2023/06/06 05:29:45;;;;;;;8.60;7.13;;;;;;;-141.84;85.33;20547.59;5091023;28;20202;-69
2023/06/06 05:32:13;;;;;;;8.33;7.20;;;;;;;-141.84;86.00;20535.41;5090975;28;20206;-70
2023/06/06 05:34:42;;;;;;;9.03;7.80;;;;;;;-141.84;86.42;20545.56;5091439;28;20199;-70
2023/06/06 05:37:10;;;;;;;8.63;7.37;;;;;;;-141.84;85.98;20549.63;5073304;28;20200;-70
2023/06/06 05:39:39;;;;;;;9.50;7.60;;;;;;;-141.84;85.91;20559.78;5070874;28;20217;-69
2023/06/06 05:42:08;;;;;;;8.90;7.50;;;;;;;-141.84;85.23;20582.16;5070892;28;20215;-75
2023/06/06 05:44:37;;;;;;;8.77;7.07;;;;;;;-141.84;84.46;20590.28;5071171;28;20299;-74
2023/06/06 05:47:07;;;;;;;7.90;6.78;;;;;;;-141.84;84.69;20537.44;5070835;28;20299;-76
2023/06/06 05:49:35;;;;;;;7.63;7.03;;;;;;;-141.84;85.06;20582.16;5070708;28;20428;-74
2023/06/06 05:52:04;;;;;;;7.87;7.07;;;;;;;-141.84;84.79;20584.19;5070462;28;20296;-75
2023/06/06 05:54:34;;;;;;;9.05;7.70;;;;;;;-141.84;84.27;20602.47;5070853;28;20258;-74
2023/06/06 05:57:22;;;;;;;9.07;7.43;;;;;;;-141.84;85.08;20596.38;5071021;28;20189;-74
2023/06/06 05:59:52;;;;;;;7.93;7.20;;;;;;;-141.84;85.80;20521.16;5086969;28;20215;-75
2023/06/06 06:02:22;;;;;;;8.23;7.43;;;;;;;-141.84;86.30;20596.38;5078717;28;20288;-75
2023/06/06 06:04:53;;;;;;;8.20;7.50;;;;;;;-141.84;85.42;20594.34;5070901;28;20188;-73
2023/06/06 06:07:23;;;;;;;7.97;7.13;;;;;;;-141.84;86.00;20576.03;5092108;28;20180;-74
2023/06/06 06:09:52;;;;;;;8.30;7.35;;;;;;;-141.84;85.74;20565.88;5095335;28;20221;-80
2023/06/06 06:12:20;;;;;;;8.60;7.07;;;;;;;-141.84;85.72;20590.28;5095215;28;20199;-75
2023/06/06 06:14:49;;;;;;;8.77;7.87;;;;;;;-141.84;85.93;20608.56;5094894;28;20231;-75
2023/06/06 06:17:20;;;;;;;8.40;7.60;;;;;;;-141.84;86.04;20596.38;5094532;28;20659;-75
2023/06/06 06:19:48;;;;;;;7.97;7.18;;;;;;;-141.84;85.65;20588.25;5094949;28;20675;-75
2023/06/06 06:22:17;;;;;;;8.23;7.35;;;;;;;-141.84;85.85;20608.56;5094501;28;20203;-74
2023/06/06 06:24:46;;;;;;;8.38;7.57;;;;;;;-141.84;85.87;20614.66;5094564;28;20207;-76
2023/06/06 06:27:15;;;;;;;8.20;7.32;;;;;;;-141.84;85.89;20620.78;5094632;28;20204;-75
2023/06/06 06:29:45;;;;;;;8.45;7.20;;;;;;;-141.84;83.25;20671.59;5094394;28;20234;-74
2023/06/06 06:32:14;;;;;;;7.45;6.60;;;;;;;-141.84;81.63;20647.19;5093733;28;20663;-73
2023/06/06 06:34:44;;;;;;;7.18;6.50;;;;;;;-141.84;82.96;20612.63;5093968;28;20199;-75
2023/06/06 06:37:12;;;;;;;12.70;8.55;;;;;;;-141.84;83.94;20643.13;5093792;28;20231;-74
2023/06/06 06:39:41;;;;;;;8.18;6.68;;;;;;;-141.84;81.63;20675.66;5076722;28;20288;-74
2023/06/06 06:42:10;;;;;;;7.45;6.70;;;;;;;-141.84;80.67;20645.16;5073934;28;20225;-75
2023/06/06 06:44:38;;;;;;;7.05;6.38;;;;;;;-141.84;79.95;20659.38;5074579;28;20204;-73
2023/06/06 06:47:09;;;;;;;6.97;6.38;;;;;;;-141.84;80.47;20641.09;5073932;28;20185;-74
2023/06/06 06:49:42;;;;;;;7.68;6.72;;;;;;;-141.84;81.14;20693.94;5083130;28;20236;-74
2023/06/06 06:52:16;;;;;;;7.47;6.20;;;;;;;-141.84;80.70;20704.13;5094288;28;20186;-75
2023/06/06 06:54:52;;;;;;;9.18;6.28;;;;;;;-141.84;79.00;20793.56;5088552;28;20276;-75
2023/06/06 06:57:22;;;;;;;6.57;5.85;;;;;;;-141.84;79.24;20752.91;5073889;28;20558;-75
2023/06/06 06:59:51;;;;;;;6.72;6.05;;;;;;;-141.84;77.67;20793.56;5073732;28;20228;-58
2023/06/06 07:02:19;;;;;;;6.03;5.40;;;;;;;-141.84;75.02;20824.06;5080039;28;20270;-59
2023/06/06 07:04:48;;;;;;;5.85;5.32;;;;;;;-141.84;73.15;20836.25;5085068;28;20208;-58
2023/06/06 07:07:18;;;;;;;7.25;5.82;;;;;;;-141.84;74.16;20876.91;5093763;28;20305;-58
2023/06/06 07:09:47;;;;;;;7.72;6.57;;;;;;;-141.84;71.92;20891.13;5093677;28;20299;-57
2023/06/06 07:12:16;;;;;;;7.40;5.60;;;;;;;-141.84;72.68;20854.53;5093901;28;20196;-57
2023/06/06 07:14:44;;;;;;;7.30;6.13;;;;;;;-141.84;74.14;20911.47;5093390;28;20218;-58
2023/06/06 07:17:15;;;;;;;7.47;6.07;;;;;;;-141.84;73.16;20895.19;5093441;28;20295;-57
2023/06/06 07:19:44;;;;;;;7.22;6.53;;;;;;;-141.84;74.40;20911.47;5093159;28;20200;-58
2023/06/06 07:22:12;;;;;;;5.75;5.25;;;;;;;-141.84;74.72;20964.31;5093703;28;20262;-57
2023/06/06 07:24:43;;;;;;;6.65;5.38;;;;;;;-141.84;74.23;20972.47;5093564;28;20283;-58
2023/06/06 07:27:13;;;;;;;6.15;5.55;;;;;;;-141.84;73.89;20982.63;5093230;28;20679;-58
2023/06/06 07:29:42;;;;;;;7.20;6.05;;;;;;;-141.84;73.13;21015.16;5093669;28;20227;-58
2023/06/06 07:32:10;;;;;;;6.50;5.90;;;;;;;-141.84;71.33;21078.16;5081351;28;20209;-57
2023/06/06 07:34:40;;;;;;;6.43;5.50;;;;;;;-141.84;71.18;21051.75;5073026;28;20250;-58
2023/06/06 07:37:08;;;;;;;8.00;5.80;;;;;;;-141.84;69.67;21122.91;5072944;28;20236;-56
2023/06/06 07:39:37;;;;;;;5.68;4.82;;;;;;;-141.84;69.42;21155.44;5072696;28;20291;-58
2023/06/06 07:42:07;;;;;;;6.97;6.28;;;;;;;-141.84;69.18;21169.66;5072926;28;20264;-58
2023/06/06 07:44:35;;;;;;;5.90;5.30;;;;;;;-141.84;67.17;21216.41;5072576;28;20207;-59
2023/06/06 07:47:04;;;;;;;7.40;5.65;;;;;;;-141.84;65.59;21285.53;5093257;28;20303;-59
2023/06/06 07:49:33;;;;;;;7.35;5.25;;;;;;;-141.84;64.11;21330.28;5092860;28;20286;-58
2023/06/06 07:52:02;;;;;;;6.95;5.80;;;;;;;-141.84;64.88;21346.53;5092978;28;20279;-58
2023/06/06 07:54:30;;;;;;;6.18;5.57;;;;;;;-141.84;64.04;21330.28;5076100;28;20200;-60
2023/06/06 07:56:59;;;;;;;6.38;5.70;;;;;;;-141.84;64.63;21338.41;5092931;28;20237;-58
2023/06/06 07:59:31;;;;;;;7.72;5.97;;;;;;;-141.84;64.42;21322.13;5092761;28;20675;-58
2023/06/06 08:02:00;;;;;;;7.30;6.05;;;;;;;-141.84;65.41;21297.75;5089230;28;20211;-58
2023/06/06 08:04:28;;;;;;;7.35;6.03;;;;;;;-141.84;64.76;21261.16;5072422;28;20212;-61
2023/06/06 08:06:57;;;;;;;6.80;6.15;;;;;;;-141.84;65.54;21263.19;5088109;28;20480;-59
2023/06/06 08:09:25;;;;;;;5.97;5.45;;;;;;;-141.84;64.67;21326.22;5092602;28;20746;-58
2023/06/06 08:11:54;;;;;;;6.60;5.90;;;;;;;-141.84;63.84;21314.00;5092567;28;20292;-59
2023/06/06 08:14:22;;;;;;;5.93;5.32;;;;;;;-141.84;65.05;21253.00;5092470;28;20232;-58
2023/06/06 08:16:52;;;;;;;6.20;5.60;;;;;;;-141.84;64.06;21289.59;5092607;28;20240;-58
2023/06/06 08:19:21;;;;;;;7.60;5.53;;;;;;;-141.84;65.14;21259.13;5092493;28;20496;-58
2023/06/06 08:21:50;;;;;;;5.68;4.97;;;;;;;-141.84;66.42;21202.19;5092312;28;20227;-57
2023/06/06 08:24:18;;;;;;;6.43;5.60;;;;;;;-141.84;65.65;21283.50;5092356;28;20242;-56
2023/06/06 08:26:47;;;;;;;7.38;5.90;;;;;;;-141.84;65.68;21275.38;5092153;28;20242;-58
2023/06/06 08:29:15;;;;;;;5.90;5.30;;;;;;;-141.84;65.46;21238.78;5091965;28;20269;-57
2023/06/06 08:31:45;;;;;;;5.80;5.20;;;;;;;-141.84;67.17;21198.13;5085989;28;20204;-58
2023/06/06 08:34:15;;;;;;;6.18;5.57;;;;;;;-141.84;66.92;21206.25;5091719;28;20668;-56
2023/06/06 08:36:44;;;;;;;6.25;5.65;;;;;;;-141.84;66.81;21259.13;5078489;28;20209;-58
2023/06/06 08:39:13;;;;;;;6.82;5.90;;;;;;;-141.84;65.91;21269.28;5071822;28;20279;-57
2023/06/06 08:41:50;;;;;;;7.60;6.40;;;;;;;-141.84;65.70;21277.41;5078820;28;20224;-58
2023/06/06 08:44:21;;;;;;;6.97;6.25;;;;;;;-141.84;63.25;21366.88;5056429;28;20208;-59
2023/06/06 08:46:52;;;;;;;6.93;6.20;;;;;;;-141.84;62.91;21429.91;5072376;28;20192;-58
2023/06/06 08:49:22;;;;;;;6.03;5.53;;;;;;;-141.84;61.93;21470.56;5083518;28;20236;-59
2023/06/06 08:51:52;;;;;;;7.63;6.00;;;;;;;-141.84;60.58;21576.28;5071610;28;20672;-59
2023/06/06 08:54:21;;;;;;;7.32;6.60;;;;;;;-141.84;60.14;21537.66;5073855;28;20212;-58
2023/06/06 08:56:51;;;;;;;5.35;4.85;;;;;;;-141.84;61.05;21549.84;5092063;28;20312;-58
2023/06/06 08:59:20;;;;;;;7.25;6.47;;;;;;;-141.84;59.62;21734.88;5092080;28;20188;-59
2023/06/06 09:01:51;;;;;;;6.68;6.07;;;;;;;-141.84;58.38;21726.75;5089481;28;20642;-56
2023/06/06 09:04:23;;;;;;;7.55;6.07;;;;;;;-141.84;59.20;21716.59;5071591;28;20185;-58
2023/06/06 09:06:56;;;;;;;6.07;5.30;;;;;;;-141.84;60.40;21602.72;5086257;28;20191;-59
2023/06/06 09:09:26;;;;;;;6.15;5.65;;;;;;;-141.84;60.40;21533.59;5092181;28;20185;-58
2023/06/06 09:11:55;;;;;;;6.43;5.82;;;;;;;-141.84;61.13;21616.97;5091981;28;20253;-59
2023/06/06 09:14:24;;;;;;;7.00;6.28;;;;;;;-141.84;59.97;21568.16;5091928;28;20250;-59
2023/06/06 09:16:53;;;;;;;6.80;6.07;;;;;;;-141.84;61.86;21513.25;5091660;28;20204;-59
2023/06/06 09:19:26;;;;;;;6.72;6.13;;;;;;;-141.84;61.85;21558.00;5091484;28;20279;-58
2023/06/06 09:21:58;;;;;;;6.40;5.80;;;;;;;-141.84;62.70;21517.31;5091606;28;20647;-57
2023/06/06 09:24:28;;;;;;;6.82;6.07;;;;;;;-141.84;61.55;21631.19;5091588;28;20242;-60
2023/06/06 09:26:56;;;;;;;6.65;5.95;;;;;;;-141.84;58.63;21671.84;5086080;28;20201;-59
2023/06/06 09:29:26;;;;;;;7.00;5.75;;;;;;;-141.84;60.47;21680.00;5071358;28;20258;-59
2023/06/06 09:31:59;;;;;;;6.00;5.50;;;;;;;-141.84;59.55;21759.28;5080836;28;20295;-59
2023/06/06 09:34:29;;;;;;;6.28;5.72;;;;;;;-141.84;58.65;21769.47;5091331;28;20188;-58
2023/06/06 09:36:59;;;;;;;6.00;5.50;;;;;;;-141.84;57.06;21793.84;5075381;28;20262;-58
2023/06/06 09:39:28;;;;;;;6.25;5.65;;;;;;;-141.84;57.36;21836.56;5091173;28;20236;-57
2023/06/06 09:41:57;;;;;;;7.00;6.03;;;;;;;-141.84;56.20;21911.78;5090399;28;20755;-57
2023/06/06 09:44:28;;;;;;;7.28;5.75;;;;;;;-141.84;55.51;21860.97;5091241;28;20237;-58
2023/06/06 09:47:00;;;;;;;6.53;5.93;;;;;;;-141.84;56.27;21787.75;5071127;28;20676;-58
2023/06/06 09:49:34;;;;;;;6.68;6.07;;;;;;;-141.84;57.17;21753.19;5070713;28;20324;-58
2023/06/06 09:52:05;;;;;;;7.47;5.88;;;;;;;-141.84;58.27;21816.22;5070509;28;20197;-59
2023/06/06 09:54:34;;;;;;;6.72;6.13;;;;;;;-141.84;58.61;21767.44;5086507;28;20223;-58
2023/06/06 09:57:13;;;;;;;7.95;5.90;;;;;;;-141.84;56.47;21848.75;5070634;28;20295;-59
2023/06/06 09:59:44;;;;;;;6.85;6.22;;;;;;;-141.84;57.02;21802.00;5034975;28;20656;-59
2023/06/06 10:02:17;;;;;;;7.40;6.03;;;;;;;-141.84;56.98;21734.88;5077642;28;20255;-59
2023/06/06 10:04:49;;;;;;;6.88;6.28;;;;;;;-141.84;55.64;21822.31;5070508;28;20191;-58
2023/06/06 10:07:18;;;;;;;5.57;4.97;;;;;;;-141.84;55.78;21895.53;5088800;28;20640;-59
2023/06/06 10:09:48;;;;;;;6.43;5.82;;;;;;;-141.84;54.63;21930.09;5090807;28;20752;-59
2023/06/06 10:12:17;;;;;;;7.28;6.57;;;;;;;-141.84;54.08;21913.84;5091018;28;20181;-58
2023/06/06 10:14:48;;;;;;;7.30;5.80;;;;;;;-141.84;55.69;21836.56;5090863;28;20203;-60
2023/06/06 10:17:18;;;;;;;5.78;5.28;;;;;;;-141.84;55.22;21838.59;5090974;28;20180;-58
2023/06/06 10:19:48;;;;;;;5.70;5.20;;;;;;;-141.84;53.90;21893.50;5090403;28;20663;-58
2023/06/06 10:22:16;;;;;;;6.70;5.60;;;;;;;-141.84;52.95;21919.94;5090929;28;20265;-58
2023/06/06 10:24:48;;;;;;;6.75;6.10;;;;;;;-141.84;54.08;21858.94;5072915;28;20215;-57
2023/06/06 10:27:21;;;;;;;6.50;5.90;;;;;;;-141.84;54.57;21802.00;5070571;28;20186;-58
2023/06/06 10:30:01;;;;;;;6.25;5.63;;;;;;;-141.84;55.07;21814.19;5070537;28;20220;-58
2023/06/06 10:32:44;;;;;;;7.38;6.20;;;;;;;-141.84;55.50;21751.16;5020616;28;20282;-58
2023/06/06 10:35:16;;;;;;;7.38;6.72;;;;;;;-141.84;55.09;21873.16;5089513;28;20204;-57
2023/06/06 10:38:03;;;;;;;10.10;9.20;;;;;;;-141.84;55.57;21808.09;5070498;28;20196;-59
2023/06/06 10:40:50;;;;;;;7.05;6.35;;;;;;;-141.84;56.01;21802.00;5070597;28;20184;-58
2023/06/06 10:43:53;;;;;;;7.43;6.63;;;;;;;-141.84;55.16;21899.59;5061085;28;20225;-58
2023/06/06 10:46:21;;;;;;;7.22;6.53;;;;;;;-141.84;56.20;21926.03;5070216;28;20225;-59
2023/06/06 10:48:58;;;;;;;7.25;6.13;;;;;;;-141.84;55.64;21834.53;5073715;28;20223;-58
2023/06/06 10:51:33;;;;;;;6.50;5.78;;;;;;;-141.84;55.78;21771.50;5090583;28;20227;-57
2023/06/06 10:54:18;;;;;;;7.75;6.20;;;;;;;-141.84;55.91;21826.41;5092495;28;20195;-57
2023/06/06 10:56:53;;;;;;;7.03;6.35;;;;;;;-141.84;55.24;21791.81;5073874;28;20189;-58
2023/06/06 10:59:25;;;;;;;6.40;5.80;;;;;;;-141.84;54.44;21842.66;5073513;28;20185;-60
2023/06/06 11:01:54;;;;;;;7.28;6.10;;;;;;;-141.84;54.69;21887.41;5079906;28;20570;-56
2023/06/06 11:04:24;;;;;;;6.63;5.90;;;;;;;-141.84;54.41;21854.88;5073243;28;20232;-58
2023/06/06 11:06:58;;;;;;;6.82;6.03;;;;;;;-141.84;55.02;21846.72;5088209;28;20225;-59
2023/06/06 11:09:29;;;;;;;6.40;5.78;;;;;;;-141.84;54.47;21915.88;5093371;28;20219;-59
2023/06/06 11:12:27;;;;;;;7.65;6.88;;;;;;;-141.84;54.39;21879.25;5093395;28;20180;-57
2023/06/06 11:14:57;;;;;;;7.68;6.63;;;;;;;-141.84;54.75;21875.19;5093397;28;20280;-57
2023/06/06 11:17:30;;;;;;;7.40;6.72;;;;;;;-141.84;54.88;21865.03;5093361;28;20192;-58
2023/06/06 11:20:00;;;;;;;7.65;6.95;;;;;;;-141.84;53.32;22003.31;5092452;28;20196;-58
2023/06/06 11:22:33;;;;;;;6.70;6.05;;;;;;;-141.84;53.65;21997.19;5093455;28;20185;-58
2023/06/06 11:25:02;;;;;;;6.20;5.60;;;;;;;-141.84;53.54;22054.13;5093433;28;20222;-59
2023/06/06 11:27:31;;;;;;;7.47;6.78;;;;;;;-141.84;51.80;22062.28;5093075;28;20195;-59
2023/06/06 11:30:01;;;;;;;7.68;6.93;;;;;;;-141.84;52.23;22027.72;5093356;28;20206;-59
2023/06/06 11:32:32;;;;;;;7.78;7.18;;;;;;;-141.84;52.72;22052.09;5093339;28;20207;-58